createdAt,value
2019-04-30T00:00:18.208Z,25.40
2019-04-30T00:03:11.599Z,23.13
2019-04-30T00:05:37.250Z,20.97
2019-04-30T00:08:05.473Z,18.97
2019-04-30T00:10:36.986Z,18.37
2019-04-30T00:13:01.171Z,18.03
2019-04-30T00:15:27.952Z,20.33
2019-04-30T00:18:00.286Z,19.47
2019-04-30T00:20:23.020Z,18.83
2019-04-30T00:22:50.496Z,19.27
2019-04-30T00:25:19.650Z,20.37
2019-04-30T00:27:48.058Z,17.97
2019-04-30T00:30:15.473Z,18.27
2019-04-30T00:32:43.831Z,19.67
2019-04-30T00:35:11.907Z,20.87
2019-04-30T00:37:39.704Z,23.03
2019-04-30T00:40:06.398Z,21.37
2019-04-30T00:42:33.000Z,21.63
2019-04-30T00:45:03.965Z,20.70
2019-04-30T00:47:28.097Z,20.43
2019-04-30T00:49:57.539Z,19.63
2019-04-30T00:52:25.200Z,19.00
2019-04-30T00:54:51.745Z,20.97
2019-04-30T00:57:18.525Z,20.07
2019-04-30T00:59:47.950Z,21.17
2019-04-30T01:02:40.193Z,23.70
2019-04-30T01:05:11.652Z,23.53
2019-04-30T01:07:39.573Z,20.07
2019-04-30T01:10:07.656Z,21.60
2019-04-30T01:12:41.060Z,20.13
2019-04-30T01:15:06.446Z,21.27
2019-04-30T01:17:31.683Z,20.83
2019-04-30T01:19:59.235Z,22.30
2019-04-30T01:22:31.126Z,20.60
2019-04-30T01:24:55.194Z,20.97
2019-04-30T01:27:22.001Z,21.20
2019-04-30T01:29:48.842Z,20.97
2019-04-30T01:32:19.676Z,20.63
2019-04-30T01:34:50.063Z,19.93
2019-04-30T01:37:13.083Z,19.47
2019-04-30T01:39:39.618Z,20.87
2019-04-30T01:42:07.959Z,24.40
2019-04-30T01:44:34.563Z,25.57
2019-04-30T01:47:01.044Z,19.47
2019-04-30T01:49:28.959Z,19.83
2019-04-30T01:51:57.356Z,19.00
2019-04-30T01:54:24.739Z,18.53
2019-04-30T01:57:05.899Z,21.10
2019-04-30T01:59:54.908Z,20.73
2019-04-30T02:02:23.364Z,20.33
2019-04-30T02:04:50.175Z,23.20
2019-04-30T02:07:16.699Z,21.70
2019-04-30T02:09:43.174Z,30.37
2019-04-30T02:12:09.808Z,33.00
2019-04-30T02:14:36.407Z,28.33
2019-04-30T02:17:02.989Z,29.43
2019-04-30T02:19:32.404Z,26.27
2019-04-30T02:22:01.284Z,25.93
2019-04-30T02:24:28.849Z,21.57
2019-04-30T02:26:55.385Z,22.00
2019-04-30T02:29:21.950Z,23.37
2019-04-30T02:31:50.328Z,26.23
2019-04-30T02:34:23.892Z,21.00
2019-04-30T02:36:59.143Z,20.60
2019-04-30T02:39:25.151Z,31.23
2019-04-30T02:41:52.170Z,23.23
2019-04-30T02:44:19.755Z,29.97
2019-04-30T02:46:50.466Z,26.93
2019-04-30T02:49:20.172Z,26.97
2019-04-30T02:51:46.496Z,33.07
2019-04-30T02:54:20.202Z,33.70
2019-04-30T02:57:05.950Z,32.07
2019-04-30T02:59:32.524Z,17.80
2019-04-30T03:01:59.827Z,24.80
2019-04-30T03:04:26.519Z,24.83
2019-04-30T03:06:55.117Z,23.90
2019-04-30T03:09:21.652Z,20.60
2019-04-30T03:11:49.860Z,21.70
2019-04-30T03:14:36.551Z,20.40
2019-04-30T03:17:20.925Z,20.50
2019-04-30T03:19:52.414Z,22.53
2019-04-30T03:22:21.260Z,20.03
2019-04-30T03:24:50.159Z,19.50
2019-04-30T03:27:16.861Z,19.20
2019-04-30T03:29:43.350Z,17.97
2019-04-30T03:32:13.425Z,19.57
2019-04-30T03:34:42.064Z,20.57
2019-04-30T03:37:09.716Z,17.37
2019-04-30T03:39:35.488Z,21.77
2019-04-30T03:42:02.068Z,19.23
2019-04-30T03:44:31.733Z,19.43
2019-04-30T03:46:59.365Z,18.17
2019-04-30T03:49:25.610Z,18.20
2019-04-30T03:51:52.209Z,16.97
2019-04-30T03:54:19.483Z,16.53
2019-04-30T03:56:46.319Z,17.80
2019-04-30T03:59:12.853Z,18.07
2019-04-30T04:02:04.962Z,18.57
2019-04-30T04:05:01.131Z,16.80
2019-04-30T04:07:42.403Z,18.33
2019-04-30T04:10:19.536Z,20.80
2019-04-30T04:12:46.352Z,20.13
2019-04-30T04:15:13.094Z,21.70
2019-04-30T04:17:39.926Z,21.40
2019-04-30T04:20:06.957Z,19.23
2019-04-30T04:22:33.877Z,19.57
2019-04-30T04:25:00.762Z,18.43
2019-04-30T04:27:29.829Z,19.10
2019-04-30T04:29:57.020Z,20.93
2019-04-30T04:32:24.219Z,21.43
2019-04-30T04:34:51.381Z,20.23
2019-04-30T04:37:20.345Z,23.17
2019-04-30T04:39:50.113Z,21.50
2019-04-30T04:42:16.189Z,23.17
2019-04-30T04:44:42.764Z,23.00
2019-04-30T04:47:09.921Z,23.90
2019-04-30T04:49:39.785Z,23.33
2019-04-30T04:52:06.444Z,22.60
2019-04-30T04:54:33.084Z,24.17
2019-04-30T04:57:13.992Z,23.83
2019-04-30T04:59:42.470Z,24.50
2019-04-30T05:02:32.666Z,23.67
2019-04-30T05:05:00.044Z,21.63
2019-04-30T05:07:28.523Z,24.43
2019-04-30T05:09:55.094Z,22.97
2019-04-30T05:12:21.781Z,23.37
2019-04-30T05:14:48.468Z,22.90
2019-04-30T05:17:15.224Z,25.37
2019-04-30T05:19:44.280Z,24.63
2019-04-30T05:22:10.911Z,24.27
2019-04-30T05:24:38.428Z,25.37
2019-04-30T05:27:05.948Z,24.30
2019-04-30T05:29:32.569Z,24.87
2019-04-30T05:31:59.138Z,25.57
2019-04-30T05:34:25.672Z,23.93
2019-04-30T05:36:52.458Z,22.90
2019-04-30T05:39:18.991Z,24.77
2019-04-30T05:41:49.052Z,24.37
2019-04-30T05:44:15.368Z,22.77
2019-04-30T05:46:41.934Z,21.80
2019-04-30T05:49:09.034Z,21.07
2019-04-30T05:51:35.682Z,19.80
2019-04-30T05:54:02.274Z,18.80
2019-04-30T05:56:30.533Z,17.93
2019-04-30T05:58:59.236Z,16.53
2019-04-30T06:01:25.902Z,13.90
2019-04-30T06:03:52.503Z,12.17
2019-04-30T06:06:19.456Z,10.90
2019-04-30T06:09:06.683Z,9.50
2019-04-30T06:12:11.268Z,8.50
2019-04-30T06:14:48.877Z,9.53
2019-04-30T06:17:15.589Z,7.50
2019-04-30T06:19:42.774Z,8.70
2019-04-30T06:22:10.971Z,7.20
2019-04-30T06:24:39.535Z,7.30
2019-04-30T06:27:06.332Z,6.33
2019-04-30T06:29:33.301Z,5.67
2019-04-30T06:32:01.766Z,6.27
2019-04-30T06:34:29.500Z,5.73
2019-04-30T06:36:57.102Z,5.90
2019-04-30T06:39:24.504Z,5.63
2019-04-30T06:42:21.744Z,5.37
2019-04-30T06:44:49.432Z,5.13
2019-04-30T06:47:16.481Z,4.73
2019-04-30T06:49:43.324Z,4.83
2019-04-30T06:52:20.289Z,4.57
2019-04-30T06:54:39.714Z,3.93
2019-04-30T06:57:09.768Z,4.30
2019-04-30T06:59:37.123Z,4.20
2019-04-30T07:02:05.971Z,3.97
2019-04-30T07:04:32.513Z,4.90
2019-04-30T07:06:59.099Z,4.00
2019-04-30T07:09:49.880Z,4.30
2019-04-30T07:12:29.841Z,5.20
2019-04-30T07:14:55.389Z,4.03
2019-04-30T07:17:22.012Z,4.47
2019-04-30T07:19:55.724Z,4.70
2019-04-30T07:22:19.159Z,4.40
2019-04-30T07:24:46.498Z,5.43
2019-04-30T07:27:13.029Z,4.40
2019-04-30T07:29:39.583Z,4.10
2019-04-30T07:32:06.258Z,4.70
2019-04-30T07:34:36.987Z,4.53
2019-04-30T07:37:11.828Z,5.00
2019-04-30T07:39:33.375Z,5.60
2019-04-30T07:41:59.913Z,4.60
2019-04-30T07:44:33.787Z,5.43
2019-04-30T07:46:55.689Z,4.87
2019-04-30T07:49:22.203Z,5.77
2019-04-30T07:51:51.639Z,5.37
2019-04-30T07:54:18.984Z,6.00
2019-04-30T07:56:45.779Z,5.60
2019-04-30T07:59:12.417Z,5.20
2019-04-30T08:02:00.010Z,5.93
2019-04-30T08:04:29.095Z,5.20
2019-04-30T08:06:59.703Z,5.33
2019-04-30T08:09:26.553Z,5.50
2019-04-30T08:11:53.061Z,5.60
2019-04-30T08:14:21.137Z,5.70
2019-04-30T08:16:48.439Z,5.87
2019-04-30T08:19:16.462Z,4.80
2019-04-30T08:21:45.332Z,5.43
2019-04-30T08:24:11.876Z,4.83
2019-04-30T08:26:39.741Z,4.63
2019-04-30T08:29:06.627Z,4.47
2019-04-30T08:31:33.455Z,4.87
2019-04-30T08:34:00.389Z,4.13
2019-04-30T08:36:29.799Z,4.53
2019-04-30T08:38:59.649Z,4.10
2019-04-30T08:41:26.501Z,4.93
2019-04-30T08:43:53.088Z,4.93
2019-04-30T08:46:19.735Z,4.70
2019-04-30T08:48:51.614Z,4.33
2019-04-30T08:51:15.225Z,3.80
2019-04-30T08:53:41.987Z,3.53
2019-04-30T08:56:10.091Z,3.57
2019-04-30T08:58:38.946Z,3.10
2019-04-30T09:01:05.546Z,2.93
2019-04-30T09:03:32.491Z,3.70
2019-04-30T09:06:19.628Z,3.50
2019-04-30T09:08:49.031Z,3.40
2019-04-30T09:11:27.123Z,3.13
2019-04-30T09:13:44.249Z,3.03
2019-04-30T09:16:11.035Z,2.67
2019-04-30T09:18:39.349Z,2.80
2019-04-30T09:21:06.574Z,2.40
2019-04-30T09:23:43.918Z,2.43
2019-04-30T09:26:02.481Z,2.90
2019-04-30T09:28:29.500Z,2.70
2019-04-30T09:30:56.332Z,2.73
2019-04-30T09:33:22.899Z,2.50
2019-04-30T09:35:49.672Z,2.77
2019-04-30T09:38:16.239Z,2.67
2019-04-30T09:40:42.806Z,2.70
2019-04-30T09:43:09.395Z,2.83
2019-04-30T09:45:36.241Z,3.40
2019-04-30T09:48:03.170Z,3.13
2019-04-30T09:50:30.550Z,2.90
2019-04-30T09:52:57.922Z,3.03
2019-04-30T09:55:25.672Z,2.53
2019-04-30T09:57:52.273Z,2.40
2019-04-30T10:00:19.454Z,2.27
2019-04-30T10:02:46.508Z,2.97
2019-04-30T10:05:14.514Z,2.60
2019-04-30T10:07:41.807Z,2.53
2019-04-30T10:10:11.402Z,2.70
2019-04-30T10:12:39.228Z,2.47
2019-04-30T10:15:09.146Z,2.40
2019-04-30T10:17:40.511Z,2.73
2019-04-30T10:20:11.806Z,2.40
2019-04-30T10:22:40.111Z,2.87
2019-04-30T10:25:09.147Z,2.43
2019-04-30T10:27:35.902Z,2.90
2019-04-30T10:30:03.701Z,2.77
2019-04-30T10:32:30.591Z,3.03
2019-04-30T10:34:57.258Z,3.00
2019-04-30T10:37:23.977Z,2.90
2019-04-30T10:39:50.911Z,3.27
2019-04-30T10:42:17.415Z,2.27
2019-04-30T10:44:43.947Z,3.30
2019-04-30T10:47:10.876Z,3.10
2019-04-30T10:49:38.975Z,2.93
2019-04-30T10:52:09.343Z,3.20
2019-04-30T10:54:36.156Z,3.00
2019-04-30T10:57:02.889Z,3.33
2019-04-30T10:59:29.828Z,2.93
2019-04-30T11:01:56.771Z,3.10
2019-04-30T11:04:23.319Z,2.87
2019-04-30T11:06:50.054Z,3.20
2019-04-30T11:09:16.744Z,3.03
2019-04-30T11:11:43.383Z,3.10
2019-04-30T11:14:09.992Z,3.17
2019-04-30T11:16:36.693Z,2.70
2019-04-30T11:19:04.235Z,3.47
2019-04-30T11:21:31.071Z,3.30
2019-04-30T11:23:59.433Z,3.30
2019-04-30T11:26:30.787Z,3.33
2019-04-30T11:28:56.128Z,2.97
2019-04-30T11:31:41.576Z,3.30
2019-04-30T11:34:08.375Z,3.37
2019-04-30T11:36:38.884Z,3.80
2019-04-30T11:39:10.910Z,3.40
2019-04-30T11:41:39.547Z,2.83
2019-04-30T11:44:06.185Z,3.50
2019-04-30T11:47:24.694Z,2.87
2019-04-30T11:49:51.277Z,2.90
2019-04-30T11:52:20.053Z,2.80
2019-04-30T11:54:51.535Z,2.60
2019-04-30T11:57:15.056Z,3.20
2019-04-30T11:59:45.626Z,3.67
2019-04-30T12:02:26.199Z,3.40
2019-04-30T12:04:52.836Z,3.20
2019-04-30T12:07:26.385Z,3.00
2019-04-30T12:10:00.907Z,3.23
2019-04-30T12:12:28.943Z,3.23
2019-04-30T12:14:55.649Z,2.80
2019-04-30T12:17:22.299Z,3.80
2019-04-30T12:19:49.891Z,3.57
2019-04-30T12:22:20.004Z,3.90
2019-04-30T12:24:45.153Z,3.10
2019-04-30T12:27:12.276Z,3.20
2019-04-30T12:29:39.776Z,3.13
2019-04-30T12:32:06.412Z,3.33
2019-04-30T12:34:33.143Z,3.40
2019-04-30T12:36:59.726Z,3.00
2019-04-30T12:39:26.293Z,3.53
2019-04-30T12:41:53.130Z,3.43
2019-04-30T12:44:19.716Z,3.43
2019-04-30T12:46:48.531Z,3.80
2019-04-30T12:49:15.196Z,3.20
2019-04-30T12:51:58.636Z,3.63
2019-04-30T12:54:53.907Z,3.70
2019-04-30T12:57:26.327Z,3.70
2019-04-30T12:59:53.075Z,3.60
2019-04-30T13:02:19.839Z,3.40
2019-04-30T13:04:46.426Z,3.47
2019-04-30T13:07:13.907Z,3.70
2019-04-30T13:09:41.533Z,4.20
2019-04-30T13:12:10.369Z,4.10
2019-04-30T13:14:51.031Z,4.07
2019-04-30T13:17:07.344Z,4.37
2019-04-30T13:19:34.074Z,3.83
2019-04-30T13:22:00.992Z,4.17
2019-04-30T13:24:31.085Z,4.50
2019-04-30T13:26:56.095Z,4.10
2019-04-30T13:29:30.411Z,3.80
2019-04-30T13:31:58.587Z,4.07
2019-04-30T13:34:54.096Z,4.00
2019-04-30T13:37:20.721Z,5.03
2019-04-30T13:40:03.044Z,4.50
2019-04-30T13:42:33.663Z,4.73
2019-04-30T13:45:00.207Z,4.90
2019-04-30T13:47:29.140Z,4.97
2019-04-30T13:49:55.366Z,4.37
2019-04-30T13:52:22.101Z,4.93
2019-04-30T13:54:49.060Z,5.00
2019-04-30T13:57:15.656Z,5.23
2019-04-30T13:59:44.555Z,5.20
2019-04-30T14:02:11.308Z,5.90
2019-04-30T14:05:00.784Z,5.27
2019-04-30T14:07:53.156Z,5.73
2019-04-30T14:10:19.836Z,5.80
2019-04-30T14:12:53.637Z,5.97
2019-04-30T14:15:20.489Z,6.70
2019-04-30T14:17:47.156Z,6.00
2019-04-30T14:20:13.841Z,6.57
2019-04-30T14:22:40.358Z,6.27
2019-04-30T14:25:07.168Z,5.93
2019-04-30T14:27:33.693Z,6.53
2019-04-30T14:30:00.334Z,6.07
2019-04-30T14:32:28.502Z,5.80
2019-04-30T14:34:55.234Z,6.30
2019-04-30T14:37:21.918Z,6.03
2019-04-30T14:39:49.070Z,6.13
2019-04-30T14:42:17.756Z,5.67
2019-04-30T14:44:45.764Z,7.20
2019-04-30T14:47:29.836Z,7.37
2019-04-30T14:50:12.770Z,7.33
2019-04-30T14:52:46.817Z,8.23
2019-04-30T14:55:34.513Z,7.17
2019-04-30T14:58:20.993Z,7.40
2019-04-30T15:00:59.236Z,7.57
2019-04-30T15:03:26.554Z,6.37
2019-04-30T15:05:53.257Z,7.17
2019-04-30T15:08:19.812Z,8.17
2019-04-30T15:10:46.486Z,7.20
2019-04-30T15:13:13.073Z,6.80
2019-04-30T15:15:39.736Z,8.13
2019-04-30T15:18:06.906Z,7.43
2019-04-30T15:20:33.568Z,7.30
2019-04-30T15:23:21.250Z,7.30
2019-04-30T15:25:48.640Z,6.97
2019-04-30T15:28:15.297Z,7.77
2019-04-30T15:30:42.190Z,8.00
2019-04-30T15:33:17.425Z,7.87
2019-04-30T15:35:44.390Z,7.80
2019-04-30T15:38:11.033Z,7.43
2019-04-30T15:40:38.767Z,8.20
2019-04-30T15:43:06.125Z,7.37
2019-04-30T15:45:32.719Z,8.33
2019-04-30T15:47:59.415Z,7.43
2019-04-30T15:50:26.316Z,7.17
2019-04-30T15:52:53.449Z,8.40
2019-04-30T15:55:20.318Z,8.33
2019-04-30T15:57:59.333Z,8.23
2019-04-30T16:00:29.243Z,8.40
2019-04-30T16:03:02.102Z,7.63
2019-04-30T16:05:43.123Z,7.77
2019-04-30T16:08:23.374Z,6.97
2019-04-30T16:11:19.510Z,7.70
2019-04-30T16:14:18.584Z,8.30
2019-04-30T16:17:14.546Z,8.93
2019-04-30T16:19:49.979Z,8.30
2019-04-30T16:22:23.529Z,7.80
2019-04-30T16:24:50.075Z,8.70
2019-04-30T16:27:16.688Z,7.90
2019-04-30T16:29:43.527Z,8.50
2019-04-30T16:32:10.147Z,8.07
2019-04-30T16:34:38.715Z,8.30
2019-04-30T16:37:05.597Z,8.90
2019-04-30T16:39:32.318Z,8.70
2019-04-30T16:41:59.263Z,8.90
2019-04-30T16:44:25.863Z,8.97
2019-04-30T16:46:52.507Z,8.70
2019-04-30T16:49:21.224Z,9.43
2019-04-30T16:51:47.874Z,9.63
2019-04-30T16:54:16.215Z,9.00
2019-04-30T16:56:42.727Z,10.57
2019-04-30T16:59:11.226Z,9.73
2019-04-30T17:01:37.937Z,9.83
2019-04-30T17:04:11.899Z,9.70
2019-04-30T17:06:41.748Z,10.10
2019-04-30T17:09:17.600Z,9.07
2019-04-30T17:12:04.714Z,9.93
2019-04-30T17:14:32.014Z,9.70
2019-04-30T17:16:59.727Z,9.73
2019-04-30T17:19:31.701Z,9.67
2019-04-30T17:21:58.385Z,9.93
2019-04-30T17:24:24.931Z,9.33
2019-04-30T17:26:51.570Z,9.70
2019-04-30T17:29:19.490Z,10.47
2019-04-30T17:31:46.011Z,9.50
2019-04-30T17:34:12.530Z,10.03
2019-04-30T17:36:39.663Z,9.80
2019-04-30T17:39:08.157Z,10.00
2019-04-30T17:41:35.427Z,10.17
2019-04-30T17:44:01.975Z,11.43
2019-04-30T17:46:29.112Z,10.00
2019-04-30T17:48:55.578Z,10.67
2019-04-30T17:51:22.934Z,10.90
2019-04-30T18:38:31.155Z,13.47
2019-04-30T18:40:59.462Z,13.27
2019-04-30T18:43:26.264Z,13.63
2019-04-30T18:45:52.891Z,14.17
2019-04-30T18:48:21.112Z,12.97
2019-04-30T18:50:49.511Z,14.17
2019-04-30T18:53:20.941Z,13.07
2019-04-30T18:55:50.490Z,14.33
2019-04-30T18:58:16.123Z,13.83
2019-04-30T19:00:44.694Z,14.63
2019-04-30T19:03:11.407Z,13.80
2019-04-30T19:05:39.296Z,14.00
2019-04-30T19:08:11.811Z,14.30
2019-04-30T19:10:56.632Z,13.27
2019-04-30T19:13:53.040Z,13.87
2019-04-30T19:16:45.367Z,14.23
2019-04-30T19:19:16.981Z,13.97
2019-04-30T19:21:43.540Z,13.60
2019-04-30T19:24:10.148Z,13.07
2019-04-30T19:26:38.826Z,15.57
2019-04-30T19:29:07.562Z,15.07
2019-04-30T19:31:34.451Z,14.00
2019-04-30T19:34:01.064Z,13.77
2019-04-30T19:36:35.000Z,13.83
2019-04-30T19:38:56.255Z,15.27
2019-04-30T19:41:23.114Z,14.20
2019-04-30T19:43:50.204Z,14.83
2019-04-30T19:46:18.747Z,14.70
2019-04-30T19:48:45.584Z,14.43
2019-04-30T19:51:12.410Z,13.40
2019-04-30T19:53:39.552Z,15.10
2019-04-30T19:56:06.624Z,14.87
2019-04-30T19:58:47.664Z,15.27
2019-04-30T20:01:01.560Z,15.03
2019-04-30T20:03:29.260Z,14.40
2019-04-30T20:05:56.163Z,15.57
2019-04-30T20:08:23.878Z,14.57
2019-04-30T20:10:50.472Z,15.57
2019-04-30T20:13:30.889Z,14.43
2019-04-30T20:15:45.737Z,15.90
2019-04-30T20:18:12.609Z,14.90
2019-04-30T20:20:41.167Z,14.73
2019-04-30T20:23:07.847Z,15.77
2019-04-30T20:25:34.392Z,15.90
2019-04-30T20:28:01.079Z,16.47
2019-04-30T20:30:29.206Z,16.73
2019-04-30T20:32:56.442Z,18.20
2019-04-30T20:35:23.143Z,18.20
2019-04-30T20:38:09.408Z,17.87
2019-04-30T20:40:43.382Z,17.60
2019-04-30T20:43:05.240Z,18.57
2019-04-30T20:45:32.000Z,19.27
2019-04-30T20:47:59.220Z,20.37
2019-04-30T20:50:26.040Z,20.73
2019-04-30T20:52:52.504Z,20.47
2019-04-30T20:55:27.587Z,22.13
2019-04-30T20:57:54.092Z,21.80
2019-04-30T21:00:26.683Z,21.00
2019-04-30T21:02:53.196Z,21.27
2019-04-30T21:05:19.776Z,20.90
2019-04-30T21:07:46.246Z,22.73
2019-04-30T21:10:13.033Z,21.73
2019-04-30T21:12:39.746Z,21.00
2019-04-30T21:15:07.276Z,22.37
2019-04-30T21:17:33.819Z,23.13
2019-04-30T21:20:01.023Z,24.43
2019-04-30T21:22:29.481Z,25.90
2019-04-30T21:24:56.086Z,25.73
2019-04-30T21:27:22.613Z,24.20
2019-04-30T21:29:49.403Z,26.33
2019-04-30T21:32:25.563Z,24.97
2019-04-30T21:35:03.439Z,23.87
2019-04-30T21:37:29.993Z,27.60
2019-04-30T21:39:58.228Z,26.60
2019-04-30T21:42:25.004Z,27.70
2019-04-30T21:44:51.530Z,28.10
2019-04-30T21:47:18.054Z,27.73
2019-04-30T21:49:45.245Z,30.07
2019-04-30T21:52:11.749Z,28.47
2019-04-30T21:54:38.762Z,29.23
2019-04-30T21:57:06.028Z,28.73
2019-04-30T21:59:34.942Z,28.80
2019-04-30T22:02:01.624Z,28.13
2019-04-30T22:04:28.141Z,28.40
2019-04-30T22:06:55.042Z,29.53
2019-04-30T22:09:21.540Z,29.30
2019-04-30T22:11:49.369Z,28.03
2019-04-30T22:14:16.064Z,28.23
2019-04-30T22:16:42.715Z,30.27
2019-04-30T22:19:09.276Z,28.90
2019-04-30T22:21:36.221Z,30.87
2019-04-30T22:24:02.957Z,29.73
2019-04-30T22:26:29.798Z,29.83
2019-04-30T22:28:56.258Z,29.17
2019-04-30T22:31:22.814Z,30.57
2019-04-30T22:33:49.428Z,31.00
2019-04-30T22:36:21.972Z,30.17
2019-04-30T22:39:12.032Z,29.87
2019-04-30T22:41:39.785Z,30.67
2019-04-30T22:44:06.324Z,29.97
2019-04-30T22:46:32.847Z,30.23
2019-04-30T22:48:59.333Z,31.47
2019-04-30T22:51:25.960Z,31.10
2019-04-30T22:53:52.461Z,30.83
2019-04-30T22:56:19.070Z,30.30
2019-04-30T22:58:45.782Z,30.13
2019-04-30T23:01:23.584Z,31.87
2019-04-30T23:03:52.125Z,32.63
2019-04-30T23:06:18.669Z,30.67
2019-04-30T23:08:45.154Z,31.20
2019-04-30T23:11:11.614Z,33.23
2019-04-30T23:13:38.174Z,32.43
2019-04-30T23:16:05.377Z,31.37
2019-04-30T23:18:32.265Z,31.87
2019-04-30T23:20:58.935Z,30.90
2019-04-30T23:23:25.447Z,32.40
2019-04-30T23:25:52.210Z,31.83
2019-04-30T23:28:19.108Z,32.40
2019-04-30T23:30:47.293Z,31.93
2019-04-30T23:33:13.816Z,33.10
2019-04-30T23:35:40.626Z,31.87
2019-04-30T23:38:07.218Z,32.20
2019-04-30T23:40:49.126Z,32.80
2019-04-30T23:43:15.881Z,30.67
2019-04-30T23:45:42.380Z,32.80
2019-04-30T23:48:08.895Z,32.03
2019-04-30T23:50:35.465Z,30.13
2019-04-30T23:53:02.225Z,30.93
2019-04-30T23:55:29.296Z,31.07
2019-04-30T23:57:55.817Z,31.97
